Terminal Aerodrome Forecast
Issued by NWS

Home | Current Version | Previous Version | Text Only | Print | Product List | Glossary On
Versions: 1 2 3 4 5 6 7 8 9 10 11 12 13 14 15 16 17 18 19 20 21 22 23 24 25 26 27 28 29 30 31 32 33 34 35 36 37 38 39 40
000
FTUS43 KDLH 241600 AAC
TAFHIB
TAF AMD
KHIB 241633Z 2417/2512 14016G23KT P6SM BKN009 OVC012
      TEMPO 2417/2419 2SM -RA BR SCT009 BKN035
     FM241900 14009KT P6SM SCT020 BKN035
     FM242200 15007KT P6SM VCTS OVC025CB
      TEMPO 2423/2503 5SM -TSRA BKN015CB
     FM250600 18007KT 2SM BR VCSH OVC015=

USA.gov is the U.S. government's official web portal to all federal, state and local government web resources and services.